Time;durP1;ratioP1;P1;durP2;ratioP2;P2;SDS_P1;SDS_P2;PMS_P1;PMS_P2;Temp;Humidity;BMP_temperature;BMP_pressure;BME280_temperature;BME280_humidity;BME280_pressure;Samples;Min_cycle;Max_cycle;Signal;HPM_P1;HPM_P2
2022/04/15 00:01:22;;;;;;;10.60;6.30;;;7.70;99.90;;;;;;5016995;28;20064;-64
2022/04/15 00:03:49;;;;;;;9.43;5.72;;;7.60;99.90;;;;;;5016051;28;20563;-63
2022/04/15 00:06:20;;;;;;;8.98;6.20;;;7.70;99.90;;;;;;5013571;28;20045;-61
2022/04/15 00:08:46;;;;;;;8.95;5.25;;;7.60;99.90;;;;;;5000839;28;20496;-61
2022/04/15 00:11:12;;;;;;;8.65;5.70;;;7.60;99.90;;;;;;5007476;28;20040;-64
2022/04/15 00:13:38;;;;;;;13.15;6.00;;;7.60;99.90;;;;;;4998009;28;20079;-65
2022/04/15 00:16:06;;;;;;;8.20;6.05;;;7.60;99.90;;;;;;5001163;28;20092;-62
2022/04/15 00:18:32;;;;;;;10.23;5.32;;;7.60;99.90;;;;;;5001486;28;20061;-63
2022/04/15 00:20:59;;;;;;;13.57;6.20;;;7.60;99.90;;;;;;5001696;28;20037;-61
2022/04/15 00:23:25;;;;;;;10.20;5.72;;;7.60;99.90;;;;;;5004372;28;20519;-60
2022/04/15 00:25:52;;;;;;;11.85;6.35;;;7.60;99.90;;;;;;5012508;28;20029;-62
2022/04/15 00:28:18;;;;;;;10.77;6.25;;;7.60;99.90;;;;;;5004099;28;20052;-61
2022/04/15 00:30:45;;;;;;;8.40;5.35;;;7.60;99.90;;;;;;5006613;28;20052;-61
2022/04/15 00:33:11;;;;;;;8.52;5.50;;;7.60;99.90;;;;;;5003137;28;20136;-61
2022/04/15 00:35:36;;;;;;;11.68;6.20;;;7.60;99.90;;;;;;5004263;28;20046;-62
2022/04/15 00:38:02;;;;;;;12.10;6.28;;;7.60;99.90;;;;;;5001468;28;20038;-64
2022/04/15 00:40:29;;;;;;;11.45;5.80;;;7.60;99.90;;;;;;5004146;28;20375;-64
2022/04/15 00:42:55;;;;;;;10.00;6.05;;;7.60;99.90;;;;;;4988251;28;20030;-62
2022/04/15 00:45:21;;;;;;;9.65;6.05;;;7.70;99.90;;;;;;5006737;28;20037;-62
2022/04/15 00:47:53;;;;;;;11.80;6.47;;;7.60;99.90;;;;;;5003432;28;20456;-62
2022/04/15 00:50:33;;;;;;;8.90;6.28;;;7.60;99.90;;;;;;5003821;28;20052;-64
2022/04/15 00:53:01;;;;;;;11.60;5.78;;;7.70;99.90;;;;;;5003520;28;20053;-63
2022/04/15 00:55:27;;;;;;;7.53;4.82;;;7.70;99.90;;;;;;5007400;28;20079;-62
2022/04/15 00:57:58;;;;;;;12.38;6.15;;;7.70;99.90;;;;;;5000266;28;20049;-62
2022/04/15 01:00:28;;;;;;;10.98;5.90;;;7.70;99.90;;;;;;5002328;28;20042;-63
2022/04/15 01:02:56;;;;;;;8.38;6.60;;;7.80;99.90;;;;;;4998454;28;20037;-63
2022/04/15 01:05:23;;;;;;;9.75;6.35;;;7.80;99.90;;;;;;5006335;28;20628;-65
2022/04/15 01:07:51;;;;;;;11.88;6.60;;;7.80;99.90;;;;;;4990663;28;20522;-63
2022/04/15 01:10:18;;;;;;;11.60;6.05;;;7.80;99.90;;;;;;5001136;28;20750;-61
2022/04/15 01:12:53;;;;;;;11.13;5.78;;;7.80;99.90;;;;;;4987151;28;20045;-63
2022/04/15 01:15:19;;;;;;;8.63;5.60;;;7.90;99.90;;;;;;5001343;28;20079;-63
2022/04/15 01:17:45;;;;;;;11.18;6.45;;;7.90;99.90;;;;;;5003658;28;20044;-63
2022/04/15 01:20:12;;;;;;;10.82;6.45;;;8.00;99.90;;;;;;4996909;28;20042;-62
2022/04/15 01:22:42;;;;;;;15.55;6.38;;;8.00;99.90;;;;;;5019557;22;20045;-62
2022/04/15 01:25:10;;;;;;;10.38;5.88;;;8.00;99.90;;;;;;4972108;28;20052;-65
2022/04/15 01:27:42;;;;;;;10.23;6.20;;;8.00;99.90;;;;;;4970453;28;20046;-65
2022/04/15 01:30:15;;;;;;;9.00;6.45;;;8.10;99.90;;;;;;4990020;28;20042;-64
2022/04/15 01:32:41;;;;;;;9.77;6.63;;;8.10;99.90;;;;;;4969834;28;20201;-66
2022/04/15 01:35:09;;;;;;;12.27;6.60;;;8.10;99.90;;;;;;4974447;28;20176;-64
2022/04/15 01:37:36;;;;;;;11.57;6.43;;;8.10;99.90;;;;;;4974891;28;20211;-65
2022/04/15 01:40:03;;;;;;;15.00;6.38;;;8.10;99.90;;;;;;4954986;28;20058;-65
2022/04/15 01:42:29;;;;;;;19.65;8.15;;;8.10;99.90;;;;;;4960517;28;20058;-66
2022/04/15 01:44:55;;;;;;;15.07;6.88;;;8.20;99.90;;;;;;4991396;28;20501;-65
2022/04/15 01:47:20;;;;;;;13.57;6.43;;;8.20;99.90;;;;;;4962839;28;20050;-65
2022/04/15 01:49:46;;;;;;;12.00;6.28;;;8.20;99.90;;;;;;4972631;28;20077;-64
2022/04/15 01:52:12;;;;;;;10.57;6.60;;;8.30;99.90;;;;;;4972786;28;20046;-65
2022/04/15 01:54:37;;;;;;;13.38;7.03;;;8.30;99.90;;;;;;4955507;28;20201;-65
2022/04/15 01:57:03;;;;;;;10.30;6.38;;;8.30;99.90;;;;;;4969430;28;20066;-65
2022/04/15 01:59:29;;;;;;;11.60;6.03;;;8.30;99.90;;;;;;4961887;28;20057;-64
2022/04/15 02:01:55;;;;;;;12.70;7.03;;;8.30;99.90;;;;;;4937566;28;20034;-66
2022/04/15 02:04:30;;;;;;;9.25;6.82;;;8.40;99.90;;;;;;4977188;28;20111;-65
2022/04/15 02:06:56;;;;;;;10.43;6.15;;;8.40;99.90;;;;;;4970078;28;20074;-65
2022/04/15 02:09:22;;;;;;;13.60;6.05;;;8.40;99.90;;;;;;4936239;28;20034;-64
2022/04/15 02:11:48;;;;;;;13.18;6.13;;;8.40;99.90;;;;;;4974132;28;20038;-65
2022/04/15 02:14:14;;;;;;;9.30;5.88;;;8.50;99.90;;;;;;4978053;28;20049;-65
2022/04/15 02:16:41;;;;;;;9.38;5.47;;;8.50;99.90;;;;;;4978214;28;20042;-65
2022/04/15 02:19:07;;;;;;;9.13;5.18;;;8.50;99.90;;;;;;4975034;28;20359;-65
2022/04/15 02:21:33;;;;;;;12.13;5.40;;;8.50;99.90;;;;;;4966272;28;20046;-65
2022/04/15 02:23:59;;;;;;;10.77;4.90;;;8.60;99.90;;;;;;4979516;28;20382;-65
2022/04/15 02:26:25;;;;;;;9.85;4.57;;;8.60;99.90;;;;;;4965359;28;20073;-65
2022/04/15 02:28:51;;;;;;;10.50;5.10;;;8.60;99.90;;;;;;4978188;28;20077;-65
2022/04/15 02:31:17;;;;;;;12.38;6.03;;;8.60;99.90;;;;;;4972871;28;20133;-64
2022/04/15 02:33:43;;;;;;;10.25;5.68;;;8.60;99.90;;;;;;4968504;28;20050;-66
2022/04/15 02:36:09;;;;;;;13.80;5.95;;;8.60;99.90;;;;;;4977535;28;20034;-65
2022/04/15 02:38:35;;;;;;;10.63;4.97;;;8.60;99.90;;;;;;4997053;28;20042;-65
2022/04/15 02:41:03;;;;;;;9.95;5.00;;;8.60;99.90;;;;;;4975834;28;20609;-65
2022/04/15 02:43:31;;;;;;;13.27;5.78;;;8.60;99.90;;;;;;4962804;28;20045;-65
2022/04/15 02:46:03;;;;;;;18.00;6.30;;;8.60;99.90;;;;;;4979065;28;20046;-65
2022/04/15 02:48:32;;;;;;;13.02;6.88;;;8.70;99.90;;;;;;4976766;28;20341;-62
2022/04/15 02:50:59;;;;;;;14.93;6.97;;;8.70;99.90;;;;;;4967088;28;20524;-63
2022/04/15 02:53:25;;;;;;;14.65;7.07;;;8.70;99.90;;;;;;4959598;28;20042;-64
2022/04/15 02:55:52;;;;;;;12.60;6.03;;;8.70;99.90;;;;;;4976216;28;20038;-62
2022/04/15 02:58:17;;;;;;;10.40;5.68;;;8.70;99.90;;;;;;4962767;28;20043;-63
2022/04/15 03:00:43;;;;;;;14.75;6.35;;;8.70;99.90;;;;;;4973499;28;20046;-63
2022/04/15 03:03:09;;;;;;;15.18;6.45;;;8.70;99.90;;;;;;4971625;28;20042;-63
2022/04/15 03:05:35;;;;;;;15.68;5.22;;;8.70;99.90;;;;;;4966778;28;20231;-64
2022/04/15 03:08:00;;;;;;;7.65;4.40;;;8.70;99.90;;;;;;4977003;28;22456;-63
2022/04/15 03:10:26;;;;;;;8.05;5.47;;;8.70;99.90;;;;;;4963205;28;20057;-63
2022/04/15 03:12:52;;;;;;;13.38;5.38;;;8.70;99.90;;;;;;4978759;28;20404;-64
2022/04/15 03:15:17;;;;;;;10.70;5.57;;;8.60;99.90;;;;;;4961482;28;20042;-65
2022/04/15 03:17:46;;;;;;;12.68;6.13;;;8.70;99.90;;;;;;4971329;28;20038;-63
2022/04/15 03:20:13;;;;;;;7.65;4.22;;;8.70;99.90;;;;;;4976972;28;20141;-63
2022/04/15 03:22:42;;;;;;;6.35;3.72;;;8.70;99.90;;;;;;4976249;28;20058;-65
2022/04/15 03:25:10;;;;;;;9.48;5.35;;;8.60;99.90;;;;;;4977981;28;20035;-64
2022/04/15 03:27:36;;;;;;;5.93;4.30;;;8.60;99.90;;;;;;4957828;28;20039;-64
2022/04/15 03:30:04;;;;;;;7.03;4.50;;;8.60;99.90;;;;;;4991441;28;20049;-64
2022/04/15 03:32:31;;;;;;;9.30;5.43;;;8.70;99.90;;;;;;4958759;28;20042;-65
2022/04/15 03:34:58;;;;;;;7.90;5.15;;;8.70;99.90;;;;;;4975164;28;20264;-64
2022/04/15 03:37:24;;;;;;;10.00;5.85;;;8.80;99.90;;;;;;4962707;28;20053;-64
2022/04/15 03:39:49;;;;;;;7.55;4.68;;;8.70;99.90;;;;;;4959651;28;21058;-63
2022/04/15 03:42:15;;;;;;;7.88;4.75;;;8.70;99.90;;;;;;4974000;28;20042;-64
2022/04/15 03:44:41;;;;;;;9.80;4.72;;;8.70;99.90;;;;;;4959210;28;20080;-64
2022/04/15 03:47:07;;;;;;;10.80;5.90;;;8.70;99.90;;;;;;4969847;28;20048;-64
2022/04/15 03:49:33;;;;;;;9.52;6.22;;;8.70;99.90;;;;;;4992211;28;20049;-65
2022/04/15 03:51:59;;;;;;;12.93;6.68;;;8.70;99.90;;;;;;4990339;28;20042;-64
2022/04/15 03:54:25;;;;;;;14.05;6.90;;;8.70;99.90;;;;;;5011630;23;20180;-63
2022/04/15 03:56:51;;;;;;;12.82;7.22;;;8.70;99.90;;;;;;5020472;28;20041;-62
2022/04/15 03:59:17;;;;;;;15.25;9.05;;;8.70;99.90;;;;;;5004375;28;20073;-62
2022/04/15 04:01:43;;;;;;;19.23;10.40;;;8.70;99.90;;;;;;4990491;28;20482;-60
2022/04/15 04:04:09;;;;;;;21.27;10.40;;;8.70;99.90;;;;;;5009115;28;20041;-60
2022/04/15 04:06:35;;;;;;;19.30;13.07;;;8.70;99.90;;;;;;5012849;28;20450;-62
2022/04/15 04:09:00;;;;;;;16.35;11.70;;;8.80;99.90;;;;;;5012726;28;20069;-61
2022/04/15 04:11:26;;;;;;;22.35;14.45;;;8.90;99.90;;;;;;5012523;28;20041;-62
2022/04/15 04:13:52;;;;;;;17.88;11.93;;;8.80;99.90;;;;;;5009401;28;20561;-63
2022/04/15 04:16:18;;;;;;;23.15;12.13;;;8.80;99.90;;;;;;5002773;28;20255;-61
2022/04/15 04:18:45;;;;;;;19.02;12.13;;;8.80;99.90;;;;;;5006855;28;20041;-61
2022/04/15 04:21:11;;;;;;;18.25;10.40;;;8.90;99.90;;;;;;5005366;28;20053;-63
2022/04/15 04:23:38;;;;;;;17.10;11.20;;;8.80;99.90;;;;;;5007361;28;20117;-63
2022/04/15 04:26:04;;;;;;;13.57;9.77;;;8.80;99.90;;;;;;5007954;28;20042;-62
2022/04/15 04:28:31;;;;;;;16.33;10.98;;;8.80;99.90;;;;;;5006937;28;20033;-61
2022/04/15 04:30:56;;;;;;;15.68;10.05;;;8.80;99.90;;;;;;5008820;28;20195;-63
2022/04/15 04:33:22;;;;;;;13.35;9.88;;;8.80;99.90;;;;;;5001793;28;20038;-63
2022/04/15 04:35:48;;;;;;;14.85;8.88;;;8.80;99.90;;;;;;5002811;28;20522;-63
2022/04/15 04:38:14;;;;;;;15.55;8.48;;;8.80;99.90;;;;;;5009967;28;20037;-63
2022/04/15 04:40:40;;;;;;;10.52;7.53;;;8.80;99.90;;;;;;5003668;28;20391;-62
2022/04/15 04:43:07;;;;;;;8.85;7.43;;;8.80;99.90;;;;;;5004216;28;20042;-62
2022/04/15 04:45:33;;;;;;;11.88;7.55;;;8.70;99.90;;;;;;5003486;28;20420;-61
2022/04/15 04:48:01;;;;;;;14.25;7.75;;;8.80;99.90;;;;;;5001502;28;20054;-60
2022/04/15 04:50:28;;;;;;;7.90;6.22;;;8.70;99.90;;;;;;5005842;28;20091;-61
2022/04/15 04:52:54;;;;;;;8.07;5.47;;;8.80;99.90;;;;;;5004973;28;20389;-61
2022/04/15 04:55:20;;;;;;;8.45;5.95;;;8.70;99.90;;;;;;5009065;28;20041;-61
2022/04/15 04:57:46;;;;;;;9.63;6.03;;;8.70;99.90;;;;;;5000853;28;20045;-61
2022/04/15 05:00:14;;;;;;;8.20;5.95;;;8.70;99.90;;;;;;5008826;28;20374;-62
2022/04/15 05:02:41;;;;;;;9.73;6.43;;;8.70;99.90;;;;;;5007669;28;20053;-61
2022/04/15 05:05:08;;;;;;;7.80;6.38;;;8.70;99.90;;;;;;4996576;28;20337;-61
2022/04/15 05:07:34;;;;;;;8.23;5.57;;;8.70;99.90;;;;;;4999499;28;20497;-61
2022/04/15 05:10:00;;;;;;;7.93;5.40;;;8.70;99.90;;;;;;5003993;28;20049;-62
2022/04/15 05:12:26;;;;;;;6.88;5.72;;;8.70;99.90;;;;;;5001565;28;20045;-60
2022/04/15 05:14:52;;;;;;;7.18;5.25;;;8.70;99.90;;;;;;5000981;28;20127;-62
2022/04/15 05:17:18;;;;;;;7.55;5.10;;;8.70;99.90;;;;;;5008355;28;20495;-61
2022/04/15 05:19:44;;;;;;;9.18;5.10;;;8.70;99.90;;;;;;5002780;28;20037;-60
2022/04/15 05:22:11;;;;;;;7.15;5.30;;;8.70;99.90;;;;;;5000239;28;20802;-62
2022/04/15 05:24:37;;;;;;;10.50;5.53;;;8.70;99.90;;;;;;5001890;28;20053;-62
2022/04/15 05:27:03;;;;;;;6.82;4.80;;;8.70;99.90;;;;;;5002093;28;20518;-62
2022/04/15 05:29:28;;;;;;;6.38;4.85;;;8.70;99.90;;;;;;5006420;28;20046;-62
2022/04/15 05:31:54;;;;;;;5.97;4.85;;;8.70;99.90;;;;;;5006639;28;20042;-60
2022/04/15 05:34:20;;;;;;;10.63;5.30;;;8.70;99.90;;;;;;5002663;28;20038;-61
2022/04/15 05:36:46;;;;;;;7.25;4.00;;;8.80;99.90;;;;;;5007929;28;20586;-61
2022/04/15 05:39:11;;;;;;;5.38;4.05;;;8.70;99.90;;;;;;5006794;28;20567;-61
2022/04/15 05:41:37;;;;;;;5.13;3.90;;;8.80;99.90;;;;;;5005340;28;20046;-61
2022/04/15 05:44:04;;;;;;;6.20;3.53;;;8.80;99.90;;;;;;5004881;28;20503;-61
2022/04/15 05:46:30;;;;;;;6.70;3.42;;;8.80;99.90;;;;;;5002412;28;20475;-61
2022/04/15 05:48:56;;;;;;;7.60;3.85;;;8.70;99.90;;;;;;5009122;28;20091;-61
2022/04/15 05:51:22;;;;;;;5.03;3.88;;;8.70;99.90;;;;;;5003155;28;20487;-60
2022/04/15 05:53:48;;;;;;;5.38;3.72;;;8.80;99.90;;;;;;5005629;28;20111;-63
2022/04/15 05:56:14;;;;;;;5.25;3.28;;;8.80;99.90;;;;;;4979813;28;20038;-62
2022/04/15 05:58:40;;;;;;;7.63;4.50;;;8.80;99.90;;;;;;5011908;28;20050;-60
2022/04/15 06:01:09;;;;;;;4.80;3.50;;;8.80;99.90;;;;;;5007311;28;20145;-62
2022/04/15 06:03:37;;;;;;;5.40;3.33;;;8.80;99.90;;;;;;5009693;28;20407;-61
2022/04/15 06:06:04;;;;;;;4.45;3.30;;;8.80;99.90;;;;;;4999932;28;20168;-61
2022/04/15 06:08:30;;;;;;;4.38;2.95;;;8.80;99.90;;;;;;5010862;28;20076;-62
2022/04/15 06:10:55;;;;;;;6.65;2.95;;;8.80;99.90;;;;;;5006286;28;20477;-61
2022/04/15 06:13:25;;;;;;;7.15;3.30;;;8.70;99.90;;;;;;5025370;28;20056;-60
2022/04/15 06:15:55;;;;;;;5.75;3.10;;;8.80;99.90;;;;;;5006272;28;20275;-61
2022/04/15 06:18:22;;;;;;;5.13;2.80;;;8.80;99.90;;;;;;5011234;28;20042;-61
2022/04/15 06:20:48;;;;;;;5.50;3.58;;;8.80;99.90;;;;;;5006826;28;20045;-61
2022/04/15 06:23:14;;;;;;;6.72;3.85;;;8.80;99.90;;;;;;5008351;28;20574;-61
2022/04/15 06:25:41;;;;;;;5.28;3.88;;;8.70;99.90;;;;;;5006575;28;20034;-61
2022/04/15 06:28:07;;;;;;;7.57;4.30;;;8.70;99.90;;;;;;5008328;28;20713;-61
2022/04/15 06:30:33;;;;;;;7.65;4.55;;;8.60;99.90;;;;;;5010248;28;20293;-62
2022/04/15 06:32:59;;;;;;;5.65;4.40;;;8.70;99.90;;;;;;5008323;28;20064;-62
2022/04/15 06:35:25;;;;;;;7.88;4.82;;;8.60;99.90;;;;;;4997430;28;20438;-58
2022/04/15 06:37:51;;;;;;;6.22;4.68;;;8.60;99.90;;;;;;5011341;28;20045;-60
2022/04/15 06:40:17;;;;;;;6.65;5.35;;;8.60;99.90;;;;;;5006256;28;20115;-63
2022/04/15 06:42:43;;;;;;;9.10;5.28;;;8.60;99.90;;;;;;5000141;28;20507;-62
2022/04/15 06:45:11;;;;;;;7.05;4.88;;;8.60;99.90;;;;;;5009544;28;20518;-61
2022/04/15 06:47:37;;;;;;;10.15;6.00;;;8.50;99.90;;;;;;5006679;28;20049;-60
2022/04/15 06:50:03;;;;;;;10.15;6.40;;;8.50;99.90;;;;;;4991555;28;20052;-59
2022/04/15 06:52:29;;;;;;;8.20;5.47;;;8.50;99.90;;;;;;5012041;28;20518;-60
2022/04/15 06:54:55;;;;;;;8.77;5.97;;;8.60;99.90;;;;;;5007737;28;20086;-61
2022/04/15 06:57:20;;;;;;;8.52;6.70;;;8.60;99.90;;;;;;5012508;28;20041;-63
2022/04/15 06:59:46;;;;;;;9.63;6.40;;;8.60;99.90;;;;;;5008672;28;20045;-61
2022/04/15 07:02:12;;;;;;;7.28;5.55;;;8.60;99.90;;;;;;5009000;28;20053;-61
2022/04/15 07:04:38;;;;;;;11.75;7.43;;;8.70;99.90;;;;;;5006622;28;20463;-61
2022/04/15 07:07:04;;;;;;;7.90;6.28;;;8.70;99.90;;;;;;4994205;28;20534;-61
2022/04/15 07:09:30;;;;;;;11.57;7.78;;;8.70;99.90;;;;;;5008568;28;20065;-61
2022/04/15 07:11:56;;;;;;;13.18;8.93;;;8.70;99.90;;;;;;5002827;28;20092;-62
2022/04/15 07:14:22;;;;;;;13.20;8.57;;;8.70;99.90;;;;;;5007109;28;20050;-61
2022/04/15 07:16:48;;;;;;;13.57;8.55;;;8.70;99.90;;;;;;4993858;28;20045;-62
2022/04/15 07:19:14;;;;;;;12.70;7.53;;;8.70;99.90;;;;;;4998071;28;22197;-60
2022/04/15 07:21:44;;;;;;;10.27;8.40;;;8.70;99.90;;;;;;5001349;28;20057;-59
2022/04/15 07:24:09;;;;;;;13.55;9.80;;;8.70;99.90;;;;;;5002981;28;20807;-63
2022/04/15 07:26:36;;;;;;;17.92;11.20;;;8.80;99.90;;;;;;5002277;28;20410;-62
2022/04/15 07:29:03;;;;;;;10.82;8.55;;;8.80;99.90;;;;;;5000118;28;20447;-61
2022/04/15 07:31:28;;;;;;;15.55;9.18;;;8.80;99.90;;;;;;5002364;28;20227;-60
2022/04/15 07:33:54;;;;;;;15.63;10.13;;;8.90;99.90;;;;;;5004159;28;21366;-63
2022/04/15 07:39:04;;;;;;;18.85;10.80;;;9.00;99.90;;;;;;5002890;28;20046;-61
2022/04/15 07:41:30;;;;;;;16.60;11.00;;;9.00;99.90;;;;;;5003394;28;20416;-59
2022/04/15 07:43:56;;;;;;;15.68;11.27;;;9.10;99.90;;;;;;5001841;28;20316;-62
2022/04/15 07:46:21;;;;;;;16.52;11.80;;;9.20;99.90;;;;;;4990872;28;20084;-63
2022/04/15 07:48:47;;;;;;;17.73;11.80;;;9.40;99.90;;;;;;5001666;28;20068;-62
2022/04/15 07:51:13;;;;;;;20.52;11.35;;;9.60;99.90;;;;;;5007178;28;20067;-62
2022/04/15 07:53:39;;;;;;;17.88;11.07;;;9.70;99.90;;;;;;5010868;28;20072;-63
2022/04/15 07:56:05;;;;;;;17.48;11.43;;;9.90;99.90;;;;;;4990981;28;20050;-63
2022/04/15 07:58:31;;;;;;;17.17;10.68;;;10.10;99.90;;;;;;5005157;28;20061;-63
2022/04/15 08:01:00;;;;;;;16.17;9.77;;;10.30;99.90;;;;;;5006281;28;20053;-64
2022/04/15 08:03:29;;;;;;;15.95;10.80;;;10.30;99.90;;;;;;5000838;28;20510;-62
2022/04/15 08:05:55;;;;;;;17.38;9.95;;;10.40;99.90;;;;;;5007028;28;20132;-63
2022/04/15 08:08:21;;;;;;;15.60;9.43;;;10.50;99.90;;;;;;4996085;28;20528;-63
2022/04/15 08:10:48;;;;;;;14.15;9.35;;;10.40;99.90;;;;;;5003415;28;20392;-64
2022/04/15 08:13:14;;;;;;;14.15;9.32;;;10.50;99.90;;;;;;5007346;28;20180;-63
2022/04/15 08:15:40;;;;;;;14.20;9.25;;;10.50;99.90;;;;;;5007661;28;20521;-62
2022/04/15 08:18:06;;;;;;;17.17;9.27;;;10.50;99.90;;;;;;4999893;28;20443;-62
2022/04/15 08:20:31;;;;;;;13.80;8.32;;;10.50;99.90;;;;;;5001763;28;20509;-63
2022/04/15 08:22:57;;;;;;;11.45;7.93;;;10.40;99.90;;;;;;4989312;28;20054;-63
2022/04/15 08:25:23;;;;;;;16.17;8.38;;;10.40;99.90;;;;;;5008930;28;20504;-63
2022/04/15 08:27:49;;;;;;;10.65;7.88;;;10.50;99.90;;;;;;5001530;28;20042;-64
2022/04/15 08:30:14;;;;;;;13.30;7.68;;;10.50;99.90;;;;;;5006621;28;20619;-60
2022/04/15 08:32:40;;;;;;;11.23;6.95;;;10.60;99.90;;;;;;5002863;28;20239;-61
2022/04/15 08:35:09;;;;;;;10.68;6.70;;;10.60;99.90;;;;;;5010031;28;20049;-62
2022/04/15 08:37:34;;;;;;;13.10;6.20;;;10.60;99.90;;;;;;5006502;28;20045;-63
2022/04/15 08:40:00;;;;;;;11.60;7.00;;;10.60;99.90;;;;;;5005659;28;20451;-61
2022/04/15 08:42:26;;;;;;;13.75;6.10;;;10.50;99.90;;;;;;5012015;28;20036;-64
2022/04/15 08:44:54;;;;;;;9.55;6.38;;;10.50;99.90;;;;;;4989848;28;20037;-64
2022/04/15 08:47:20;;;;;;;10.05;6.38;;;10.50;99.90;;;;;;4998044;28;20072;-61
2022/04/15 08:49:47;;;;;;;11.80;6.00;;;10.50;99.90;;;;;;4996318;28;20120;-63
2022/04/15 08:52:17;;;;;;;8.80;5.50;;;10.60;99.90;;;;;;4976854;28;20049;-61
2022/04/15 08:54:44;;;;;;;10.73;5.43;;;10.60;99.90;;;;;;4985545;28;20591;-61
2022/04/15 08:57:10;;;;;;;10.60;5.68;;;10.80;99.90;;;;;;4983960;28;20046;-61
2022/04/15 08:59:36;;;;;;;9.90;5.22;;;11.00;99.90;;;;;;4993453;28;20037;-63
2022/04/15 09:02:02;;;;;;;8.65;5.45;;;11.30;99.90;;;;;;4997807;28;20527;-63
2022/04/15 09:04:28;;;;;;;11.70;5.03;;;11.50;99.90;;;;;;4999081;28;20103;-66
2022/04/15 09:06:59;;;;;;;9.32;6.55;;;11.60;99.90;;;;;;4996318;28;20050;-61
2022/04/15 09:09:30;;;;;;;12.38;6.28;;;11.60;99.90;;;;;;4992915;28;20089;-62
2022/04/15 09:11:58;;;;;;;9.05;4.72;;;11.70;99.90;;;;;;5000337;28;20052;-62
2022/04/15 09:14:25;;;;;;;9.52;5.68;;;11.60;99.90;;;;;;4993518;28;20041;-63
2022/04/15 09:16:50;;;;;;;9.18;5.72;;;11.60;99.90;;;;;;5002865;28;20045;-61
2022/04/15 09:19:17;;;;;;;9.57;5.43;;;11.70;99.90;;;;;;4998192;28;20040;-62
2022/04/15 09:21:57;;;;;;;12.60;6.55;;;11.90;99.90;;;;;;4995291;28;20037;-62
2022/04/15 09:24:42;;;;;;;7.72;5.65;;;12.00;99.90;;;;;;4987276;28;20128;-62
2022/04/15 09:27:08;;;;;;;10.00;4.80;;;11.90;99.90;;;;;;4999353;28;20932;-63
2022/04/15 09:29:39;;;;;;;9.63;5.30;;;11.90;99.90;;;;;;5002963;28;20048;-64
2022/04/15 09:32:06;;;;;;;9.60;5.45;;;11.80;99.90;;;;;;4989276;28;20775;-62
2022/04/15 09:34:32;;;;;;;9.18;5.32;;;11.80;99.90;;;;;;5018822;28;20041;-61
2022/04/15 09:36:58;;;;;;;8.02;4.75;;;11.80;99.90;;;;;;5020295;28;20491;-61
2022/04/15 09:39:24;;;;;;;8.43;4.47;;;11.80;99.90;;;;;;5010418;28;20523;-60
2022/04/15 09:41:54;;;;;;;9.25;4.78;;;11.80;99.90;;;;;;5015006;28;20041;-63
2022/04/15 09:44:22;;;;;;;9.43;5.75;;;11.70;99.90;;;;;;5008412;28;20044;-67
2022/04/15 09:46:51;;;;;;;9.75;5.60;;;11.70;99.90;;;;;;4996211;28;20492;-62
2022/04/15 09:49:17;;;;;;;5.50;4.10;;;11.70;99.90;;;;;;5008313;28;20069;-62
2022/04/15 09:51:51;;;;;;;10.38;4.30;;;11.60;99.90;;;;;;5003028;28;20034;-62
2022/04/15 09:54:25;;;;;;;7.35;3.90;;;11.60;99.90;;;;;;5004080;28;20049;-62
2022/04/15 09:56:52;;;;;;;;;;;11.60;99.90;;;;;;5006001;28;20172;-62
2022/04/15 09:59:21;;;;;;;5.18;3.03;;;11.60;99.90;;;;;;5000759;28;19924;-60
2022/04/15 10:01:52;;;;;;;6.57;3.80;;;11.60;99.90;;;;;;5003769;28;20044;-61
2022/04/15 10:04:20;;;;;;;7.03;3.80;;;11.70;99.90;;;;;;4994363;28;20063;-59
2022/04/15 10:06:46;;;;;;;6.55;3.97;;;11.80;99.90;;;;;;4997779;28;20634;-59
2022/04/15 10:09:13;;;;;;;7.15;4.28;;;12.00;99.90;;;;;;5002474;28;20045;-63
2022/04/15 10:11:41;;;;;;;6.13;4.22;;;12.40;99.90;;;;;;4984951;28;20053;-58
2022/04/15 10:14:08;;;;;;;8.73;4.68;;;12.80;99.90;;;;;;5000546;28;20041;-58
2022/04/15 10:16:36;;;;;;;7.72;4.40;;;13.00;99.80;;;;;;5005379;28;20048;-60
2022/04/15 10:19:02;;;;;;;9.45;4.28;;;13.20;99.50;;;;;;5005300;28;20104;-63
2022/04/15 10:21:36;;;;;;;6.63;4.20;;;13.10;99.10;;;;;;5012320;28;20507;-59
2022/04/15 10:24:03;;;;;;;8.25;4.05;;;13.00;98.80;;;;;;5003646;28;20048;-58
2022/04/15 10:26:46;;;;;;;7.57;4.70;;;12.90;98.70;;;;;;5000207;28;20045;-58
2022/04/15 10:29:12;;;;;;;6.93;4.25;;;12.70;98.70;;;;;;4965629;28;20558;-62
2022/04/15 10:31:46;;;;;;;9.73;4.00;;;12.60;98.80;;;;;;4997954;28;20400;-61
2022/04/15 10:34:19;;;;;;;;;;;12.70;99.30;;;;;;4998905;28;20072;-58
2022/04/15 10:36:54;;;;;;;5.95;3.95;;;13.10;99.70;;;;;;4996566;28;19970;-57
2022/04/15 10:39:24;;;;;;;6.45;4.43;;;13.50;99.60;;;;;;4989080;28;20496;-59
2022/04/15 10:42:05;;;;;;;6.32;4.35;;;13.70;98.60;;;;;;4999386;28;20132;-58
2022/04/15 10:44:32;;;;;;;5.88;4.28;;;13.80;98.10;;;;;;5000854;28;20517;-58
2022/04/15 10:47:27;;;;;;;10.95;4.47;;;13.80;97.50;;;;;;5019972;28;20503;-58
2022/04/15 10:49:54;;;;;;;9.40;4.57;;;13.70;97.50;;;;;;4994931;28;20049;-57
2022/04/15 10:52:24;;;;;;;8.48;4.60;;;13.60;97.60;;;;;;5007701;28;20637;-57
2022/04/15 10:55:06;;;;;;;10.23;4.72;;;13.60;97.60;;;;;;5010981;28;20052;-59
2022/04/15 10:57:37;;;;;;;5.40;4.10;;;13.50;97.70;;;;;;5012126;28;20049;-57
2022/04/15 11:02:58;;;;;;;9.10;5.85;;;13.80;97.90;;;;;;5015088;28;20685;-61
2022/04/15 11:05:36;;;;;;;9.07;4.30;;;14.30;98.10;;;;;;5011998;28;20648;-60
2022/04/15 11:08:09;;;;;;;7.00;4.80;;;14.50;96.70;;;;;;5022387;28;20435;-60
2022/04/15 11:10:42;;;;;;;9.27;4.75;;;14.40;95.90;;;;;;5011138;28;20044;-59
2022/04/15 11:13:40;;;;;;;8.53;5.43;;;14.30;95.80;;;;;;5007063;28;20041;-59
2022/04/15 11:16:15;;;;;;;9.32;5.30;;;14.20;95.60;;;;;;5008242;28;20366;-67
2022/04/15 11:18:51;;;;;;;8.75;5.47;;;14.00;95.40;;;;;;5003097;28;20059;-60
2022/04/15 11:21:24;;;;;;;7.43;5.70;;;13.80;95.80;;;;;;5009587;28;21700;-58
2022/04/15 11:23:53;;;;;;;7.70;5.40;;;13.70;96.30;;;;;;5010713;28;20076;-59
2022/04/15 11:26:20;;;;;;;12.02;5.13;;;13.60;96.30;;;;;;5012329;28;20147;-59
2022/04/15 11:28:51;;;;;;;9.45;5.53;;;13.70;96.40;;;;;;5001173;28;20056;-60
2022/04/15 11:31:21;;;;;;;8.05;4.65;;;13.80;96.10;;;;;;5013841;28;20042;-62
2022/04/15 11:33:46;;;;;;;9.38;4.95;;;13.80;96.20;;;;;;5010955;28;20120;-61
2022/04/15 11:36:12;;;;;;;7.32;4.97;;;13.80;95.60;;;;;;5014246;28;20363;-62
2022/04/15 11:38:39;;;;;;;7.78;5.45;;;13.70;95.50;;;;;;5012675;28;20187;-61
2022/04/15 11:41:05;;;;;;;7.68;5.28;;;13.60;95.00;;;;;;5009704;28;20069;-61
2022/04/15 11:43:31;;;;;;;12.32;5.55;;;13.70;96.10;;;;;;5010732;28;20134;-61
2022/04/15 11:45:56;;;;;;;7.22;4.75;;;13.80;96.20;;;;;;5009498;28;20044;-61
2022/04/15 11:48:24;;;;;;;8.15;5.05;;;13.80;96.30;;;;;;5007647;28;20037;-61
2022/04/15 11:50:52;;;;;;;7.47;4.45;;;13.70;95.70;;;;;;5004487;28;20714;-61
2022/04/15 11:53:18;;;;;;;7.88;4.78;;;13.60;95.50;;;;;;5003844;28;21415;-62
2022/04/15 11:55:55;;;;;;;10.63;6.28;;;13.40;95.60;;;;;;5007784;28;20388;-60
2022/04/15 11:58:22;;;;;;;12.93;6.60;;;13.30;96.10;;;;;;5019368;28;20103;-59
2022/04/15 12:00:53;;;;;;;11.13;6.10;;;13.20;96.70;;;;;;5015882;28;20040;-62
2022/04/15 12:03:20;;;;;;;9.88;5.93;;;13.10;96.90;;;;;;5014726;28;20049;-60
2022/04/15 12:05:45;;;;;;;9.88;5.65;;;13.00;97.00;;;;;;5018045;28;20029;-61
2022/04/15 12:08:11;;;;;;;15.70;6.47;;;12.90;96.70;;;;;;5016675;28;20467;-60
2022/04/15 12:10:41;;;;;;;11.98;6.03;;;12.80;97.10;;;;;;5018906;28;20052;-63
2022/04/15 12:13:07;;;;;;;11.75;6.30;;;12.80;97.20;;;;;;4996517;28;20164;-62
2022/04/15 12:15:36;;;;;;;13.10;5.90;;;12.80;97.30;;;;;;5007227;28;20120;-63
2022/04/15 12:18:06;;;;;;;12.30;6.25;;;12.80;97.70;;;;;;5022764;28;20042;-59
2022/04/15 12:20:37;;;;;;;9.27;5.60;;;12.80;97.30;;;;;;5015541;28;20073;-62
2022/04/15 12:23:03;;;;;;;9.45;6.75;;;12.80;97.30;;;;;;5012117;28;20051;-62
2022/04/15 12:26:06;;;;;;;10.27;6.20;;;12.80;97.40;;;;;;5008139;28;20124;-60
2022/04/15 12:31:02;;;;;;;9.35;6.55;;;12.70;97.70;;;;;;5001844;28;20041;-63
2022/04/15 12:33:28;;;;;;;7.60;5.60;;;12.60;97.60;;;;;;5016523;28;20052;-62
2022/04/15 12:36:03;;;;;;;6.90;5.45;;;12.60;97.40;;;;;;4998864;28;20041;-60
2022/04/15 12:38:29;;;;;;;9.70;5.93;;;12.60;97.20;;;;;;5006914;28;20037;-61
2022/04/15 12:41:00;;;;;;;12.35;6.68;;;12.50;97.10;;;;;;4998050;28;20112;-62
2022/04/15 12:43:26;;;;;;;9.65;6.22;;;12.50;97.00;;;;;;5000669;28;20088;-62
2022/04/15 12:45:57;;;;;;;10.93;6.78;;;12.50;97.20;;;;;;5005125;28;20045;-60
2022/04/15 12:48:24;;;;;;;11.98;7.43;;;12.60;97.30;;;;;;5005651;28;20136;-62
2022/04/15 12:50:58;;;;;;;11.63;7.95;;;12.60;97.50;;;;;;4995646;28;20061;-62
2022/04/15 12:53:26;;;;;;;11.77;7.10;;;12.50;97.60;;;;;;4998586;28;20412;-60
2022/04/15 12:55:53;;;;;;;12.82;7.57;;;12.40;97.70;;;;;;4998805;28;20081;-62
2022/04/15 12:58:28;;;;;;;11.30;7.38;;;12.50;98.00;;;;;;4991505;28;20569;-60